sensor_id;sensor_type;location;lat;lon;timestamp;temperature;humidity
34985;DHT22;21190;58.750;17.004;2023-04-15T00:00:58;5.90;99.90
34985;DHT22;21190;58.750;17.004;2023-04-15T00:03:25;5.90;99.90
34985;DHT22;21190;58.750;17.004;2023-04-15T00:05:53;5.90;99.90
34985;DHT22;21190;58.750;17.004;2023-04-15T00:08:20;6.00;99.90
34985;DHT22;21190;58.750;17.004;2023-04-15T00:10:47;5.90;99.90
34985;DHT22;21190;58.750;17.004;2023-04-15T00:13:15;5.90;99.90
34985;DHT22;21190;58.750;17.004;2023-04-15T00:15:42;5.90;99.90
34985;DHT22;21190;58.750;17.004;2023-04-15T00:18:09;5.90;99.90
34985;DHT22;21190;58.750;17.004;2023-04-15T00:20:36;5.80;99.90
34985;DHT22;21190;58.750;17.004;2023-04-15T00:23:03;5.80;99.90
34985;DHT22;21190;58.750;17.004;2023-04-15T00:25:31;5.80;99.90
34985;DHT22;21190;58.750;17.004;2023-04-15T00:27:58;5.80;99.90
34985;DHT22;21190;58.750;17.004;2023-04-15T00:30:25;5.80;99.90
34985;DHT22;21190;58.750;17.004;2023-04-15T00:32:52;5.80;99.90
34985;DHT22;21190;58.750;17.004;2023-04-15T00:35:19;5.80;99.90
34985;DHT22;21190;58.750;17.004;2023-04-15T00:37:47;5.70;99.90
34985;DHT22;21190;58.750;17.004;2023-04-15T00:40:16;5.70;99.90
34985;DHT22;21190;58.750;17.004;2023-04-15T00:42:44;5.70;99.90
34985;DHT22;21190;58.750;17.004;2023-04-15T00:45:11;5.70;99.90
34985;DHT22;21190;58.750;17.004;2023-04-15T00:47:40;5.70;99.90
34985;DHT22;21190;58.750;17.004;2023-04-15T00:50:09;5.70;99.90
34985;DHT22;21190;58.750;17.004;2023-04-15T00:52:37;5.60;99.90
34985;DHT22;21190;58.750;17.004;2023-04-15T00:55:05;5.60;99.90
34985;DHT22;21190;58.750;17.004;2023-04-15T00:57:32;5.60;99.90
34985;DHT22;21190;58.750;17.004;2023-04-15T00:59:59;5.60;99.90
34985;DHT22;21190;58.750;17.004;2023-04-15T01:02:27;5.50;99.90
34985;DHT22;21190;58.750;17.004;2023-04-15T01:04:55;5.50;99.90
34985;DHT22;21190;58.750;17.004;2023-04-15T01:07:22;5.50;99.90
34985;DHT22;21190;58.750;17.004;2023-04-15T01:09:49;5.50;99.90
34985;DHT22;21190;58.750;17.004;2023-04-15T01:12:17;5.40;99.90
34985;DHT22;21190;58.750;17.004;2023-04-15T01:14:45;5.40;99.90
34985;DHT22;21190;58.750;17.004;2023-04-15T01:17:12;5.40;99.90
34985;DHT22;21190;58.750;17.004;2023-04-15T01:19:39;5.40;99.90
34985;DHT22;21190;58.750;17.004;2023-04-15T01:22:07;5.50;99.90
34985;DHT22;21190;58.750;17.004;2023-04-15T01:24:34;5.50;99.90
34985;DHT22;21190;58.750;17.004;2023-04-15T01:27:05;5.50;99.90
34985;DHT22;21190;58.750;17.004;2023-04-15T01:29:36;5.50;99.90
34985;DHT22;21190;58.750;17.004;2023-04-15T01:32:04;5.50;99.90
34985;DHT22;21190;58.750;17.004;2023-04-15T01:34:31;5.40;99.90
34985;DHT22;21190;58.750;17.004;2023-04-15T01:37:01;5.40;99.90
34985;DHT22;21190;58.750;17.004;2023-04-15T01:39:28;5.40;99.90
34985;DHT22;21190;58.750;17.004;2023-04-15T01:41:55;5.40;99.90
34985;DHT22;21190;58.750;17.004;2023-04-15T01:44:23;5.40;99.90
34985;DHT22;21190;58.750;17.004;2023-04-15T01:46:50;5.40;99.90
34985;DHT22;21190;58.750;17.004;2023-04-15T01:49:17;5.40;99.90
34985;DHT22;21190;58.750;17.004;2023-04-15T01:51:44;5.40;99.90
34985;DHT22;21190;58.750;17.004;2023-04-15T01:54:11;5.40;99.90
34985;DHT22;21190;58.750;17.004;2023-04-15T01:56:38;5.40;99.90
34985;DHT22;21190;58.750;17.004;2023-04-15T01:59:05;5.40;99.90
34985;DHT22;21190;58.750;17.004;2023-04-15T02:01:32;5.40;99.90
34985;DHT22;21190;58.750;17.004;2023-04-15T02:03:59;5.40;99.90
34985;DHT22;21190;58.750;17.004;2023-04-15T02:06:26;5.40;99.90
34985;DHT22;21190;58.750;17.004;2023-04-15T02:08:53;5.40;99.90
34985;DHT22;21190;58.750;17.004;2023-04-15T02:11:20;5.40;99.90
34985;DHT22;21190;58.750;17.004;2023-04-15T02:13:48;5.50;99.90
34985;DHT22;21190;58.750;17.004;2023-04-15T02:16:18;5.50;99.90
34985;DHT22;21190;58.750;17.004;2023-04-15T02:18:46;5.50;99.90
34985;DHT22;21190;58.750;17.004;2023-04-15T02:21:13;5.50;99.90
34985;DHT22;21190;58.750;17.004;2023-04-15T02:23:40;5.50;99.90
34985;DHT22;21190;58.750;17.004;2023-04-15T02:26:07;5.50;99.90
34985;DHT22;21190;58.750;17.004;2023-04-15T02:28:34;5.50;99.90
34985;DHT22;21190;58.750;17.004;2023-04-15T02:31:05;5.50;99.90
34985;DHT22;21190;58.750;17.004;2023-04-15T02:33:32;5.50;99.90
34985;DHT22;21190;58.750;17.004;2023-04-15T02:35:59;5.50;99.90
34985;DHT22;21190;58.750;17.004;2023-04-15T02:38:26;5.50;99.90
34985;DHT22;21190;58.750;17.004;2023-04-15T02:40:53;5.60;99.90
34985;DHT22;21190;58.750;17.004;2023-04-15T02:43:20;5.60;99.90
34985;DHT22;21190;58.750;17.004;2023-04-15T02:45:47;5.70;99.90
34985;DHT22;21190;58.750;17.004;2023-04-15T02:48:14;5.70;99.90
34985;DHT22;21190;58.750;17.004;2023-04-15T02:50:44;5.70;99.90
34985;DHT22;21190;58.750;17.004;2023-04-15T02:53:11;5.70;99.90
34985;DHT22;21190;58.750;17.004;2023-04-15T02:55:40;5.80;99.90
34985;DHT22;21190;58.750;17.004;2023-04-15T02:58:08;5.80;99.90
34985;DHT22;21190;58.750;17.004;2023-04-15T03:00:35;5.80;99.90
34985;DHT22;21190;58.750;17.004;2023-04-15T03:03:04;5.80;99.90
34985;DHT22;21190;58.750;17.004;2023-04-15T03:05:33;5.80;99.90
34985;DHT22;21190;58.750;17.004;2023-04-15T03:08:00;5.90;99.90
34985;DHT22;21190;58.750;17.004;2023-04-15T03:10:27;5.90;99.90
34985;DHT22;21190;58.750;17.004;2023-04-15T03:12:54;5.90;99.90
34985;DHT22;21190;58.750;17.004;2023-04-15T03:15:21;5.90;99.90
34985;DHT22;21190;58.750;17.004;2023-04-15T03:17:48;6.00;99.90
34985;DHT22;21190;58.750;17.004;2023-04-15T03:20:15;5.90;99.90
34985;DHT22;21190;58.750;17.004;2023-04-15T03:22:42;5.90;99.90
34985;DHT22;21190;58.750;17.004;2023-04-15T03:25:09;5.90;99.90
34985;DHT22;21190;58.750;17.004;2023-04-15T03:27:37;5.90;99.90
34985;DHT22;21190;58.750;17.004;2023-04-15T03:30:05;6.00;99.90
34985;DHT22;21190;58.750;17.004;2023-04-15T03:32:32;6.00;99.90
34985;DHT22;21190;58.750;17.004;2023-04-15T03:34:59;6.00;99.90
34985;DHT22;21190;58.750;17.004;2023-04-15T03:37:26;6.00;99.90
34985;DHT22;21190;58.750;17.004;2023-04-15T03:39:53;5.90;99.90
34985;DHT22;21190;58.750;17.004;2023-04-15T03:42:20;6.00;99.90
34985;DHT22;21190;58.750;17.004;2023-04-15T03:44:47;5.90;99.90
34985;DHT22;21190;58.750;17.004;2023-04-15T03:47:14;6.00;99.90
34985;DHT22;21190;58.750;17.004;2023-04-15T03:49:41;6.00;99.90
34985;DHT22;21190;58.750;17.004;2023-04-15T03:52:08;6.00;99.90
34985;DHT22;21190;58.750;17.004;2023-04-15T03:54:35;6.00;99.90
34985;DHT22;21190;58.750;17.004;2023-04-15T03:57:02;6.00;99.90
34985;DHT22;21190;58.750;17.004;2023-04-15T03:59:29;6.00;99.90
34985;DHT22;21190;58.750;17.004;2023-04-15T04:01:56;5.90;99.90
34985;DHT22;21190;58.750;17.004;2023-04-15T04:04:23;6.00;99.90
34985;DHT22;21190;58.750;17.004;2023-04-15T04:06:50;6.00;99.90
34985;DHT22;21190;58.750;17.004;2023-04-15T04:09:17;6.00;99.90
34985;DHT22;21190;58.750;17.004;2023-04-15T04:11:43;5.90;99.90
34985;DHT22;21190;58.750;17.004;2023-04-15T04:14:11;5.90;99.90
34985;DHT22;21190;58.750;17.004;2023-04-15T04:16:38;5.90;99.90
34985;DHT22;21190;58.750;17.004;2023-04-15T04:19:05;5.90;99.90
34985;DHT22;21190;58.750;17.004;2023-04-15T04:21:32;5.90;99.90
34985;DHT22;21190;58.750;17.004;2023-04-15T04:23:59;5.90;99.90
34985;DHT22;21190;58.750;17.004;2023-04-15T04:26:26;5.90;99.90
34985;DHT22;21190;58.750;17.004;2023-04-15T04:28:53;6.00;99.90
34985;DHT22;21190;58.750;17.004;2023-04-15T04:31:20;6.00;99.90
34985;DHT22;21190;58.750;17.004;2023-04-15T04:33:47;6.00;99.90
34985;DHT22;21190;58.750;17.004;2023-04-15T04:36:14;6.00;99.90
34985;DHT22;21190;58.750;17.004;2023-04-15T04:38:41;6.00;99.90
34985;DHT22;21190;58.750;17.004;2023-04-15T04:41:08;6.10;99.90
34985;DHT22;21190;58.750;17.004;2023-04-15T04:43:35;6.00;99.90
34985;DHT22;21190;58.750;17.004;2023-04-15T04:46:02;6.00;99.90
34985;DHT22;21190;58.750;17.004;2023-04-15T04:48:29;6.00;99.90
34985;DHT22;21190;58.750;17.004;2023-04-15T04:50:56;6.00;99.90
34985;DHT22;21190;58.750;17.004;2023-04-15T04:53:23;6.00;99.90
34985;DHT22;21190;58.750;17.004;2023-04-15T04:55:49;6.00;99.90
34985;DHT22;21190;58.750;17.004;2023-04-15T04:58:16;6.00;99.90
34985;DHT22;21190;58.750;17.004;2023-04-15T05:00:43;6.00;99.90
34985;DHT22;21190;58.750;17.004;2023-04-15T05:03:10;6.10;99.90
34985;DHT22;21190;58.750;17.004;2023-04-15T05:05:38;6.00;99.90
34985;DHT22;21190;58.750;17.004;2023-04-15T05:08:06;6.00;99.90
34985;DHT22;21190;58.750;17.004;2023-04-15T05:10:33;6.00;99.90
34985;DHT22;21190;58.750;17.004;2023-04-15T05:13:00;6.10;99.90
34985;DHT22;21190;58.750;17.004;2023-04-15T05:15:27;6.10;99.90
34985;DHT22;21190;58.750;17.004;2023-04-15T05:17:54;6.10;99.90
34985;DHT22;21190;58.750;17.004;2023-04-15T05:20:21;6.20;99.90
34985;DHT22;21190;58.750;17.004;2023-04-15T05:22:48;6.10;99.90
34985;DHT22;21190;58.750;17.004;2023-04-15T05:25:16;6.20;99.90
34985;DHT22;21190;58.750;17.004;2023-04-15T05:27:42;6.10;99.90
34985;DHT22;21190;58.750;17.004;2023-04-15T05:30:10;6.20;99.90
34985;DHT22;21190;58.750;17.004;2023-04-15T05:32:39;6.20;99.90
34985;DHT22;21190;58.750;17.004;2023-04-15T05:35:06;6.10;99.90
34985;DHT22;21190;58.750;17.004;2023-04-15T05:37:34;6.20;99.90
34985;DHT22;21190;58.750;17.004;2023-04-15T05:40:01;6.20;99.90
34985;DHT22;21190;58.750;17.004;2023-04-15T05:42:28;6.20;99.90
34985;DHT22;21190;58.750;17.004;2023-04-15T05:44:54;6.20;99.90
34985;DHT22;21190;58.750;17.004;2023-04-15T05:47:22;6.20;99.90
34985;DHT22;21190;58.750;17.004;2023-04-15T05:49:49;6.20;99.90
34985;DHT22;21190;58.750;17.004;2023-04-15T05:52:16;6.20;99.90
34985;DHT22;21190;58.750;17.004;2023-04-15T05:54:43;6.30;99.90
34985;DHT22;21190;58.750;17.004;2023-04-15T05:57:10;6.30;99.90
34985;DHT22;21190;58.750;17.004;2023-04-15T05:59:37;6.30;99.90
34985;DHT22;21190;58.750;17.004;2023-04-15T06:02:04;6.40;99.90
34985;DHT22;21190;58.750;17.004;2023-04-15T06:04:32;6.40;99.90
34985;DHT22;21190;58.750;17.004;2023-04-15T06:06:59;6.40;99.90
34985;DHT22;21190;58.750;17.004;2023-04-15T06:09:26;6.50;99.90
34985;DHT22;21190;58.750;17.004;2023-04-15T06:11:54;6.60;99.90
34985;DHT22;21190;58.750;17.004;2023-04-15T06:14:22;6.70;99.90
34985;DHT22;21190;58.750;17.004;2023-04-15T06:16:49;6.80;99.90
34985;DHT22;21190;58.750;17.004;2023-04-15T06:19:16;6.80;99.90
34985;DHT22;21190;58.750;17.004;2023-04-15T06:21:44;6.80;99.90
34985;DHT22;21190;58.750;17.004;2023-04-15T06:24:11;6.80;99.90
34985;DHT22;21190;58.750;17.004;2023-04-15T06:26:39;6.90;99.90
34985;DHT22;21190;58.750;17.004;2023-04-15T06:29:06;6.90;99.90
34985;DHT22;21190;58.750;17.004;2023-04-15T06:31:33;7.00;99.90
34985;DHT22;21190;58.750;17.004;2023-04-15T06:34:00;7.00;99.90
34985;DHT22;21190;58.750;17.004;2023-04-15T06:36:27;7.10;99.90
34985;DHT22;21190;58.750;17.004;2023-04-15T06:38:54;7.10;99.90
34985;DHT22;21190;58.750;17.004;2023-04-15T06:41:22;7.20;99.90
34985;DHT22;21190;58.750;17.004;2023-04-15T06:43:49;7.20;99.90
34985;DHT22;21190;58.750;17.004;2023-04-15T06:46:16;7.20;99.90
34985;DHT22;21190;58.750;17.004;2023-04-15T06:48:43;7.20;99.90
34985;DHT22;21190;58.750;17.004;2023-04-15T06:51:10;7.30;99.90
34985;DHT22;21190;58.750;17.004;2023-04-15T06:53:37;7.30;99.90
34985;DHT22;21190;58.750;17.004;2023-04-15T06:56:09;7.40;99.90
34985;DHT22;21190;58.750;17.004;2023-04-15T06:58:36;7.50;99.90
34985;DHT22;21190;58.750;17.004;2023-04-15T07:01:03;7.50;99.90
34985;DHT22;21190;58.750;17.004;2023-04-15T07:03:31;7.50;99.90
34985;DHT22;21190;58.750;17.004;2023-04-15T07:05:58;7.50;99.90
34985;DHT22;21190;58.750;17.004;2023-04-15T07:08:25;7.50;99.90
34985;DHT22;21190;58.750;17.004;2023-04-15T07:10:52;7.60;99.90
34985;DHT22;21190;58.750;17.004;2023-04-15T07:13:19;7.60;99.90
34985;DHT22;21190;58.750;17.004;2023-04-15T07:15:46;7.50;99.90
34985;DHT22;21190;58.750;17.004;2023-04-15T07:18:13;7.60;99.90
34985;DHT22;21190;58.750;17.004;2023-04-15T07:20:40;7.60;99.90
34985;DHT22;21190;58.750;17.004;2023-04-15T07:23:08;7.70;99.90
34985;DHT22;21190;58.750;17.004;2023-04-15T07:25:35;7.70;99.90
34985;DHT22;21190;58.750;17.004;2023-04-15T07:28:02;7.70;99.90
34985;DHT22;21190;58.750;17.004;2023-04-15T07:30:29;7.80;99.90
34985;DHT22;21190;58.750;17.004;2023-04-15T07:32:57;7.90;99.90
34985;DHT22;21190;58.750;17.004;2023-04-15T07:35:24;7.90;99.90
34985;DHT22;21190;58.750;17.004;2023-04-15T07:37:52;8.00;99.90
34985;DHT22;21190;58.750;17.004;2023-04-15T07:40:19;8.10;99.90
34985;DHT22;21190;58.750;17.004;2023-04-15T07:42:46;8.20;99.90
34985;DHT22;21190;58.750;17.004;2023-04-15T07:45:15;8.20;99.90
34985;DHT22;21190;58.750;17.004;2023-04-15T07:47:42;8.30;99.90
34985;DHT22;21190;58.750;17.004;2023-04-15T07:50:09;8.30;99.90
34985;DHT22;21190;58.750;17.004;2023-04-15T07:52:37;8.30;99.90
34985;DHT22;21190;58.750;17.004;2023-04-15T07:55:06;8.30;99.90
34985;DHT22;21190;58.750;17.004;2023-04-15T07:57:34;8.30;99.90
34985;DHT22;21190;58.750;17.004;2023-04-15T08:00:02;8.30;99.90
34985;DHT22;21190;58.750;17.004;2023-04-15T08:02:30;8.30;99.90
34985;DHT22;21190;58.750;17.004;2023-04-15T08:04:58;8.30;99.90
34985;DHT22;21190;58.750;17.004;2023-04-15T08:07:25;8.30;99.90
34985;DHT22;21190;58.750;17.004;2023-04-15T08:09:52;8.40;99.90
34985;DHT22;21190;58.750;17.004;2023-04-15T08:12:20;8.50;99.90
34985;DHT22;21190;58.750;17.004;2023-04-15T08:14:47;8.50;99.90
34985;DHT22;21190;58.750;17.004;2023-04-15T08:17:14;8.50;99.90
34985;DHT22;21190;58.750;17.004;2023-04-15T08:19:41;8.50;99.90
34985;DHT22;21190;58.750;17.004;2023-04-15T08:22:09;8.50;99.90
34985;DHT22;21190;58.750;17.004;2023-04-15T08:24:44;8.50;99.90
34985;DHT22;21190;58.750;17.004;2023-04-15T08:27:11;8.60;99.90
34985;DHT22;21190;58.750;17.004;2023-04-15T08:29:38;8.70;99.90
34985;DHT22;21190;58.750;17.004;2023-04-15T08:32:06;8.80;99.90
34985;DHT22;21190;58.750;17.004;2023-04-15T08:34:33;8.90;99.90
34985;DHT22;21190;58.750;17.004;2023-04-15T08:37:00;8.90;99.90
34985;DHT22;21190;58.750;17.004;2023-04-15T08:39:27;9.00;99.90
34985;DHT22;21190;58.750;17.004;2023-04-15T08:41:59;9.00;99.90
34985;DHT22;21190;58.750;17.004;2023-04-15T08:44:29;9.10;99.90
34985;DHT22;21190;58.750;17.004;2023-04-15T08:47:00;9.10;99.90
34985;DHT22;21190;58.750;17.004;2023-04-15T08:49:29;9.10;99.90
34985;DHT22;21190;58.750;17.004;2023-04-15T08:51:58;9.20;99.90
34985;DHT22;21190;58.750;17.004;2023-04-15T08:54:26;9.20;99.90
34985;DHT22;21190;58.750;17.004;2023-04-15T08:56:54;9.30;99.90
34985;DHT22;21190;58.750;17.004;2023-04-15T08:59:23;9.30;99.90
34985;DHT22;21190;58.750;17.004;2023-04-15T09:01:50;9.30;99.90
34985;DHT22;21190;58.750;17.004;2023-04-15T09:04:18;9.30;99.90
34985;DHT22;21190;58.750;17.004;2023-04-15T09:06:46;9.30;99.90
34985;DHT22;21190;58.750;17.004;2023-04-15T09:09:13;9.40;99.90
34985;DHT22;21190;58.750;17.004;2023-04-15T09:11:40;9.40;99.90
34985;DHT22;21190;58.750;17.004;2023-04-15T09:14:08;9.50;99.90
34985;DHT22;21190;58.750;17.004;2023-04-15T09:17:03;9.60;99.90
34985;DHT22;21190;58.750;17.004;2023-04-15T09:19:30;9.70;99.90
34985;DHT22;21190;58.750;17.004;2023-04-15T09:21:59;9.70;99.90
34985;DHT22;21190;58.750;17.004;2023-04-15T09:24:36;9.80;99.90
34985;DHT22;21190;58.750;17.004;2023-04-15T09:27:04;9.80;99.90
34985;DHT22;21190;58.750;17.004;2023-04-15T09:29:32;9.90;99.90
34985;DHT22;21190;58.750;17.004;2023-04-15T09:32:09;9.90;99.90
34985;DHT22;21190;58.750;17.004;2023-04-15T09:34:37;9.90;99.90
34985;DHT22;21190;58.750;17.004;2023-04-15T09:37:04;9.90;99.90
34985;DHT22;21190;58.750;17.004;2023-04-15T09:39:49;10.00;99.90
34985;DHT22;21190;58.750;17.004;2023-04-15T09:42:17;10.10;99.90
34985;DHT22;21190;58.750;17.004;2023-04-15T09:44:50;10.10;99.90
34985;DHT22;21190;58.750;17.004;2023-04-15T09:47:30;10.20;99.90
34985;DHT22;21190;58.750;17.004;2023-04-15T09:49:59;10.20;99.90
34985;DHT22;21190;58.750;17.004;2023-04-15T09:52:27;10.20;99.90
34985;DHT22;21190;58.750;17.004;2023-04-15T09:54:56;10.30;99.90
34985;DHT22;21190;58.750;17.004;2023-04-15T09:57:23;10.30;99.90
34985;DHT22;21190;58.750;17.004;2023-04-15T09:59:51;10.40;99.90
34985;DHT22;21190;58.750;17.004;2023-04-15T10:02:19;10.40;99.90
34985;DHT22;21190;58.750;17.004;2023-04-15T10:04:49;10.50;99.90
34985;DHT22;21190;58.750;17.004;2023-04-15T10:07:19;10.50;99.90
34985;DHT22;21190;58.750;17.004;2023-04-15T10:09:48;10.60;99.90
34985;DHT22;21190;58.750;17.004;2023-04-15T10:12:16;10.70;99.90
34985;DHT22;21190;58.750;17.004;2023-04-15T10:14:49;10.80;99.90
34985;DHT22;21190;58.750;17.004;2023-04-15T10:17:21;10.80;99.90
34985;DHT22;21190;58.750;17.004;2023-04-15T10:19:48;10.90;99.90
34985;DHT22;21190;58.750;17.004;2023-04-15T10:22:18;10.90;99.90
34985;DHT22;21190;58.750;17.004;2023-04-15T10:24:46;10.90;99.90
34985;DHT22;21190;58.750;17.004;2023-04-15T10:27:16;11.00;99.90
34985;DHT22;21190;58.750;17.004;2023-04-15T10:29:43;11.00;99.90
34985;DHT22;21190;58.750;17.004;2023-04-15T10:32:11;11.10;99.90
34985;DHT22;21190;58.750;17.004;2023-04-15T10:34:39;11.10;99.90
34985;DHT22;21190;58.750;17.004;2023-04-15T10:37:08;11.20;99.90
34985;DHT22;21190;58.750;17.004;2023-04-15T10:42:08;11.20;99.90
34985;DHT22;21190;58.750;17.004;2023-04-15T10:44:36;11.30;99.90
34985;DHT22;21190;58.750;17.004;2023-04-15T10:47:12;11.30;99.90
34985;DHT22;21190;58.750;17.004;2023-04-15T10:49:59;11.30;99.90
34985;DHT22;21190;58.750;17.004;2023-04-15T10:52:27;11.30;99.90
34985;DHT22;21190;58.750;17.004;2023-04-15T10:55:24;11.30;99.90
34985;DHT22;21190;58.750;17.004;2023-04-15T10:57:58;11.20;99.90
34985;DHT22;21190;58.750;17.004;2023-04-15T11:00:31;11.20;99.90
34985;DHT22;21190;58.750;17.004;2023-04-15T11:03:06;11.10;99.90
34985;DHT22;21190;58.750;17.004;2023-04-15T11:05:52;11.40;99.90
34985;DHT22;21190;58.750;17.004;2023-04-15T11:08:21;11.30;99.90
34985;DHT22;21190;58.750;17.004;2023-04-15T11:11:06;11.20;99.90
34985;DHT22;21190;58.750;17.004;2023-04-15T11:13:34;11.20;99.90
34985;DHT22;21190;58.750;17.004;2023-04-15T11:16:02;11.10;99.90
34985;DHT22;21190;58.750;17.004;2023-04-15T11:18:31;11.10;99.90
34985;DHT22;21190;58.750;17.004;2023-04-15T11:21:06;11.10;99.90
34985;DHT22;21190;58.750;17.004;2023-04-15T11:23:36;11.20;99.90
34985;DHT22;21190;58.750;17.004;2023-04-15T11:26:05;11.10;99.90
34985;DHT22;21190;58.750;17.004;2023-04-15T11:28:35;11.00;99.90
34985;DHT22;21190;58.750;17.004;2023-04-15T11:31:12;11.10;99.90
34985;DHT22;21190;58.750;17.004;2023-04-15T11:33:57;11.00;99.90
34985;DHT22;21190;58.750;17.004;2023-04-15T11:36:29;10.90;99.90
34985;DHT22;21190;58.750;17.004;2023-04-15T11:38:58;10.90;99.90
34985;DHT22;21190;58.750;17.004;2023-04-15T11:41:25;10.90;99.90
34985;DHT22;21190;58.750;17.004;2023-04-15T11:43:52;11.00;99.90
34985;DHT22;21190;58.750;17.004;2023-04-15T11:46:19;11.00;99.90
34985;DHT22;21190;58.750;17.004;2023-04-15T11:48:47;11.00;99.90
34985;DHT22;21190;58.750;17.004;2023-04-15T11:51:14;11.00;99.90
34985;DHT22;21190;58.750;17.004;2023-04-15T11:53:43;11.00;99.90
34985;DHT22;21190;58.750;17.004;2023-04-15T11:56:19;11.00;99.90
34985;DHT22;21190;58.750;17.004;2023-04-15T11:58:48;10.90;99.90
34985;DHT22;21190;58.750;17.004;2023-04-15T12:01:17;10.90;99.90
34985;DHT22;21190;58.750;17.004;2023-04-15T12:03:47;11.00;99.90
34985;DHT22;21190;58.750;17.004;2023-04-15T12:06:24;11.00;99.90
34985;DHT22;21190;58.750;17.004;2023-04-15T12:11:27;11.10;99.90
34985;DHT22;21190;58.750;17.004;2023-04-15T12:16:37;11.20;99.90
34985;DHT22;21190;58.750;17.004;2023-04-15T12:19:18;11.30;99.90
34985;DHT22;21190;58.750;17.004;2023-04-15T12:21:46;11.20;99.90
34985;DHT22;21190;58.750;17.004;2023-04-15T12:24:14;11.20;99.90
34985;DHT22;21190;58.750;17.004;2023-04-15T12:26:49;11.00;99.90
34985;DHT22;21190;58.750;17.004;2023-04-15T12:29:18;11.00;99.90
34985;DHT22;21190;58.750;17.004;2023-04-15T12:31:50;10.90;99.90
34985;DHT22;21190;58.750;17.004;2023-04-15T12:34:34;10.80;99.90
34985;DHT22;21190;58.750;17.004;2023-04-15T12:37:03;10.70;99.90
34985;DHT22;21190;58.750;17.004;2023-04-15T12:39:33;10.70;99.90
34985;DHT22;21190;58.750;17.004;2023-04-15T12:42:01;10.80;99.90
34985;DHT22;21190;58.750;17.004;2023-04-15T12:44:29;10.70;99.90
34985;DHT22;21190;58.750;17.004;2023-04-15T12:46:55;10.80;99.90
34985;DHT22;21190;58.750;17.004;2023-04-15T12:49:23;10.80;99.90
34985;DHT22;21190;58.750;17.004;2023-04-15T12:51:52;10.90;99.90
34985;DHT22;21190;58.750;17.004;2023-04-15T12:54:20;10.90;99.90
34985;DHT22;21190;58.750;17.004;2023-04-15T12:56:48;10.90;99.90
34985;DHT22;21190;58.750;17.004;2023-04-15T12:59:16;11.00;99.90
34985;DHT22;21190;58.750;17.004;2023-04-15T13:01:46;11.10;99.90
34985;DHT22;21190;58.750;17.004;2023-04-15T13:04:14;11.00;99.90
34985;DHT22;21190;58.750;17.004;2023-04-15T13:06:42;11.00;99.90
34985;DHT22;21190;58.750;17.004;2023-04-15T13:09:09;11.10;99.90
34985;DHT22;21190;58.750;17.004;2023-04-15T13:11:36;11.00;99.90
34985;DHT22;21190;58.750;17.004;2023-04-15T13:14:04;11.10;99.90
34985;DHT22;21190;58.750;17.004;2023-04-15T13:16:33;10.90;99.90
34985;DHT22;21190;58.750;17.004;2023-04-15T13:19:01;10.70;99.90
34985;DHT22;21190;58.750;17.004;2023-04-15T13:21:29;10.70;99.90
34985;DHT22;21190;58.750;17.004;2023-04-15T13:23:57;10.70;99.90
34985;DHT22;21190;58.750;17.004;2023-04-15T13:26:24;10.70;99.90
34985;DHT22;21190;58.750;17.004;2023-04-15T13:28:52;10.70;99.90
34985;DHT22;21190;58.750;17.004;2023-04-15T13:31:19;10.80;99.90
34985;DHT22;21190;58.750;17.004;2023-04-15T13:33:46;10.80;99.90
34985;DHT22;21190;58.750;17.004;2023-04-15T13:36:13;10.80;99.90
34985;DHT22;21190;58.750;17.004;2023-04-15T13:38:40;10.90;99.90
34985;DHT22;21190;58.750;17.004;2023-04-15T13:41:07;10.80;99.90
34985;DHT22;21190;58.750;17.004;2023-04-15T13:43:34;10.80;99.90
34985;DHT22;21190;58.750;17.004;2023-04-15T13:46:01;10.90;99.90
34985;DHT22;21190;58.750;17.004;2023-04-15T13:48:28;10.90;99.90
34985;DHT22;21190;58.750;17.004;2023-04-15T13:50:55;10.90;99.90
34985;DHT22;21190;58.750;17.004;2023-04-15T13:53:22;10.90;99.90
34985;DHT22;21190;58.750;17.004;2023-04-15T13:56:07;10.90;99.90
34985;DHT22;21190;58.750;17.004;2023-04-15T13:58:35;10.80;99.90
34985;DHT22;21190;58.750;17.004;2023-04-15T14:01:02;10.80;99.90
34985;DHT22;21190;58.750;17.004;2023-04-15T14:03:33;10.80;99.90
34985;DHT22;21190;58.750;17.004;2023-04-15T14:06:00;10.80;99.90
34985;DHT22;21190;58.750;17.004;2023-04-15T14:08:29;10.70;99.90
34985;DHT22;21190;58.750;17.004;2023-04-15T14:10:56;10.80;99.90
34985;DHT22;21190;58.750;17.004;2023-04-15T14:13:23;10.80;99.90
34985;DHT22;21190;58.750;17.004;2023-04-15T14:15:50;10.90;99.90
34985;DHT22;21190;58.750;17.004;2023-04-15T14:18:17;10.90;99.90
34985;DHT22;21190;58.750;17.004;2023-04-15T14:20:44;10.90;99.90
34985;DHT22;21190;58.750;17.004;2023-04-15T14:23:11;10.90;99.90
34985;DHT22;21190;58.750;17.004;2023-04-15T14:25:38;11.00;99.90
34985;DHT22;21190;58.750;17.004;2023-04-15T14:28:05;11.20;99.90
34985;DHT22;21190;58.750;17.004;2023-04-15T14:30:32;11.20;99.90
34985;DHT22;21190;58.750;17.004;2023-04-15T14:32:59;11.20;99.90
34985;DHT22;21190;58.750;17.004;2023-04-15T14:35:27;11.20;99.90
34985;DHT22;21190;58.750;17.004;2023-04-15T14:37:54;11.20;99.90
34985;DHT22;21190;58.750;17.004;2023-04-15T14:40:21;11.20;99.90
34985;DHT22;21190;58.750;17.004;2023-04-15T14:42:48;11.30;99.90
34985;DHT22;21190;58.750;17.004;2023-04-15T14:45:15;11.30;99.90
34985;DHT22;21190;58.750;17.004;2023-04-15T14:47:43;11.40;99.90
34985;DHT22;21190;58.750;17.004;2023-04-15T14:50:10;11.40;99.90
34985;DHT22;21190;58.750;17.004;2023-04-15T14:52:37;11.30;99.90
34985;DHT22;21190;58.750;17.004;2023-04-15T14:55:09;11.30;99.90
34985;DHT22;21190;58.750;17.004;2023-04-15T14:57:37;11.30;99.90
34985;DHT22;21190;58.750;17.004;2023-04-15T15:00:05;11.30;99.90
34985;DHT22;21190;58.750;17.004;2023-04-15T15:02:33;11.40;99.90
34985;DHT22;21190;58.750;17.004;2023-04-15T15:05:07;11.30;99.90
34985;DHT22;21190;58.750;17.004;2023-04-15T15:07:35;11.10;99.90
34985;DHT22;21190;58.750;17.004;2023-04-15T15:10:03;11.00;99.90
34985;DHT22;21190;58.750;17.004;2023-04-15T15:12:30;10.90;99.90
34985;DHT22;21190;58.750;17.004;2023-04-15T15:14:57;10.90;99.90
34985;DHT22;21190;58.750;17.004;2023-04-15T15:17:24;10.90;99.90
34985;DHT22;21190;58.750;17.004;2023-04-15T15:19:53;10.80;99.90
34985;DHT22;21190;58.750;17.004;2023-04-15T15:22:20;10.60;99.90
34985;DHT22;21190;58.750;17.004;2023-04-15T15:24:47;10.60;99.90
34985;DHT22;21190;58.750;17.004;2023-04-15T15:27:14;10.70;99.90
34985;DHT22;21190;58.750;17.004;2023-04-15T15:29:41;10.70;99.90
34985;DHT22;21190;58.750;17.004;2023-04-15T15:32:08;10.70;99.90
34985;DHT22;21190;58.750;17.004;2023-04-15T15:34:35;10.70;99.90
34985;DHT22;21190;58.750;17.004;2023-04-15T15:37:02;10.60;99.90
34985;DHT22;21190;58.750;17.004;2023-04-15T15:39:28;10.60;99.90